Time;durP1;ratioP1;P1;durP2;ratioP2;P2;SDS_P1;SDS_P2;PMS_P1;PMS_P2;Temp;Humidity;BMP_temperature;BMP_pressure;BME280_temperature;BME280_humidity;BME280_pressure;Samples;Min_cycle;Max_cycle;Signal;HPM_P1;HPM_P2
2022/06/03 00:02:19;;;;;;;4.10;3.47;;;;;;;15.59;80.65;98613.44;5094235;28;20187;-52
2022/06/03 00:05:14;;;;;;;3.57;3.27;;;;;;;15.47;80.46;98611.28;5071465;28;20243;-51
2022/06/03 00:07:56;;;;;;;5.33;3.20;;;;;;;15.39;80.27;98607.91;5093814;28;20205;-51
2022/06/03 00:10:40;;;;;;;3.57;3.27;;;;;;;15.33;80.26;98606.84;5094065;28;20237;-51
2022/06/03 00:13:17;;;;;;;6.80;3.47;;;;;;;15.26;80.88;98603.31;5093690;28;20239;-51
2022/06/03 00:16:06;;;;;;;4.90;3.53;;;;;;;15.19;80.46;98604.03;5093967;28;20626;-52
2022/06/03 00:18:50;;;;;;;5.43;3.27;;;;;;;15.17;80.90;98598.13;5092442;28;20223;-52
2022/06/03 00:21:36;;;;;;;7.00;3.37;;;;;;;15.14;81.32;98605.56;5093686;28;20296;-52
2022/06/03 00:24:19;;;;;;;5.83;3.37;;;;;;;15.15;82.03;98607.22;5093821;28;20191;-51
2022/06/03 00:27:30;;;;;;;6.00;4.30;;;;;;;15.13;82.89;98615.25;5092497;28;20244;-52
2022/06/03 00:30:04;;;;;;;3.43;3.13;;;;;;;15.09;82.66;98613.19;4995038;28;20192;-51
2022/06/03 00:33:02;;;;;;;3.60;3.30;;;;;;;15.04;82.66;98613.72;5083550;28;20235;-52
2022/06/03 00:35:46;;;;;;;5.37;3.17;;;;;;;14.98;83.35;98617.06;5093818;28;20218;-52
2022/06/03 00:38:34;;;;;;;3.87;3.47;;;;;;;14.95;84.27;98620.03;5092191;28;20626;-51
2022/06/03 00:41:25;;;;;;;3.90;3.50;;;;;;;14.88;85.19;98623.38;5092187;28;20237;-51
2022/06/03 00:44:16;;;;;;;4.73;3.53;;;;;;;14.83;85.31;98631.03;5093606;28;20189;-51
2022/06/03 00:47:00;;;;;;;3.63;3.30;;;;;;;14.79;85.95;98634.16;5081954;28;20223;-51
2022/06/03 00:49:43;;;;;;;3.90;3.50;;;;;;;14.74;85.44;98642.59;5092312;28;20218;-52
2022/06/03 00:52:30;;;;;;;3.70;3.40;;;;;;;14.73;85.50;98635.69;5093763;28;20268;-51
2022/06/03 00:55:42;;;;;;;5.53;3.67;;;;;;;14.69;86.04;98644.91;5095003;28;20197;-53
2022/06/03 00:58:31;;;;;;;8.53;3.50;;;;;;;14.63;86.16;98645.59;5094439;28;20210;-54
2022/06/03 01:01:10;;;;;;;8.87;3.80;;;;;;;14.63;86.76;98642.97;5094045;28;20218;-54
2022/06/03 01:03:54;;;;;;;5.47;3.80;;;;;;;14.58;87.12;98639.06;5093791;28;20597;-54
2022/06/03 01:06:28;;;;;;;4.33;3.53;;;;;;;14.55;87.17;98636.78;5093786;28;20189;-54
2022/06/03 01:09:10;;;;;;;5.10;3.40;;;;;;;14.54;87.40;98636.97;5095814;28;20201;-51
2022/06/03 01:11:55;;;;;;;5.03;3.70;;;;;;;14.52;88.16;98638.94;5097182;28;20175;-52
2022/06/03 01:14:33;;;;;;;3.47;3.17;;;;;;;14.49;87.97;98640.13;5097228;28;20250;-52
2022/06/03 01:17:10;;;;;;;4.00;3.60;;;;;;;14.48;88.04;98638.50;5097548;28;20261;-51
2022/06/03 01:19:55;;;;;;;5.07;4.17;;;;;;;14.49;88.29;98637.50;5097281;28;20261;-51
2022/06/03 01:22:50;;;;;;;6.43;3.70;;;;;;;14.51;89.84;98629.44;5097076;28;20530;-51
2022/06/03 01:25:36;;;;;;;5.13;3.93;;;;;;;14.49;89.48;98631.41;5098109;28;20187;-51
2022/06/03 01:28:34;;;;;;;3.90;3.33;;;;;;;14.45;89.32;98631.75;5097883;28;20216;-54
2022/06/03 01:31:38;;;;;;;6.63;3.40;;;;;;;14.42;89.16;98629.50;5098229;28;20182;-53
2022/06/03 01:34:22;;;;;;;3.67;3.33;;;;;;;14.40;89.74;98638.53;5098188;28;20190;-51
2022/06/03 01:37:04;;;;;;;4.27;3.80;;;;;;;14.38;89.93;98637.91;5097940;28;20189;-51
2022/06/03 01:39:59;;;;;;;3.90;3.43;;;;;;;14.33;89.33;98635.78;5096383;28;20189;-52
2022/06/03 01:43:23;;;;;;;3.83;3.50;;;;;;;14.34;89.60;98644.50;5097884;28;20213;-51
2022/06/03 01:46:08;;;;;;;8.03;3.43;;;;;;;14.34;90.04;98641.88;5096755;28;20195;-51
2022/06/03 01:49:19;;;;;;;3.97;3.60;;;;;;;14.26;89.96;98638.31;5096949;28;20213;-51
2022/06/03 01:52:22;;;;;;;4.17;3.50;;;;;;;14.21;90.24;98640.63;5097146;28;20696;-51
2022/06/03 01:55:28;;;;;;;5.27;3.90;;;;;;;14.22;91.16;98636.22;5097657;28;20219;-51
2022/06/03 01:58:16;;;;;;;4.70;3.90;;;;;;;14.18;91.59;98638.34;5096786;28;20586;-53
2022/06/03 02:00:48;;;;;;;7.00;3.90;;;;;;;14.24;91.43;98632.41;5097065;28;20224;-52
2022/06/03 02:03:38;;;;;;;4.90;3.77;;;;;;;14.17;92.26;98627.06;5096212;28;20634;-51
2022/06/03 02:06:39;;;;;;;3.60;3.30;;;;;;;14.12;92.02;98631.19;5098143;28;20351;-51
2022/06/03 02:09:24;;;;;;;3.97;3.57;;;;;;;14.06;92.26;98629.25;5097345;28;20554;-51
2022/06/03 02:12:21;;;;;;;4.27;3.50;;;;;;;14.03;92.00;98625.97;5097128;28;20198;-53
2022/06/03 02:15:42;;;;;;;4.00;3.50;;;;;;;14.02;92.99;98619.09;5096419;28;20202;-51
2022/06/03 02:18:40;;;;;;;4.40;4.00;;;;;;;14.01;93.56;98625.31;5091239;28;20225;-51
2022/06/03 02:21:40;;;;;;;6.13;4.03;;;;;;;13.98;93.13;98633.56;5096312;28;20194;-51
2022/06/03 02:24:42;;;;;;;5.53;4.10;;;;;;;13.95;93.06;98623.41;5095772;28;20186;-51
2022/06/03 02:27:59;;;;;;;4.57;3.73;;;;;;;13.94;93.31;98631.47;5062223;28;20628;-51
2022/06/03 02:31:07;;;;;;;4.60;3.50;;;;;;;13.90;93.04;98635.41;5053542;28;20276;-51
2022/06/03 02:34:06;;;;;;;4.33;3.90;;;;;;;13.85;92.90;98626.25;5053794;28;20179;-51
2022/06/03 02:37:04;;;;;;;5.33;4.20;;;;;;;13.79;92.19;98626.94;5093369;28;20615;-52
2022/06/03 02:40:16;;;;;;;4.57;4.03;;;;;;;13.77;93.30;98628.91;5096062;28;20275;-51
2022/06/03 02:43:02;;;;;;;4.70;4.10;;;;;;;13.76;93.46;98627.28;5054683;28;20225;-52
2022/06/03 02:46:08;;;;;;;4.63;4.23;;;;;;;13.74;93.90;98637.13;5095509;28;20246;-51
2022/06/03 02:49:04;;;;;;;6.77;4.80;;;;;;;13.70;94.96;98623.53;5072877;28;20240;-51
2022/06/03 02:52:03;;;;;;;5.27;3.90;;;;;;;13.70;95.19;98622.72;5061933;28;20294;-52
2022/06/03 02:55:16;;;;;;;6.40;3.93;;;;;;;13.63;94.95;98614.72;5095690;28;20181;-51
2022/06/03 02:58:03;;;;;;;4.90;3.60;;;;;;;13.60;95.73;98609.81;5095176;28;20252;-51
2022/06/03 03:00:47;;;;;;;5.50;3.87;;;;;;;13.63;95.68;98611.25;5095537;28;20216;-53
2022/06/03 03:04:04;;;;;;;5.70;4.37;;;;;;;13.64;96.57;98607.66;5095226;28;20201;-54
2022/06/03 03:06:57;;;;;;;5.57;4.30;;;;;;;13.64;97.00;98605.03;5090655;28;20219;-52
2022/06/03 03:09:40;;;;;;;6.00;4.50;;;;;;;13.65;97.47;98601.41;5094558;28;20231;-53
2022/06/03 03:12:48;;;;;;;4.97;4.07;;;;;;;13.60;98.00;98606.38;5095341;28;20225;-54
2022/06/03 03:15:36;;;;;;;4.33;3.77;;;;;;;13.60;97.60;98604.56;5095225;28;20199;-51
2022/06/03 03:18:31;;;;;;;7.73;3.93;;;;;;;13.62;96.81;98599.13;5093332;28;20249;-52
2022/06/03 03:21:16;;;;;;;5.17;3.87;;;;;;;13.64;96.78;98591.91;5095112;28;20201;-52
2022/06/03 03:24:20;;;;;;;5.63;3.90;;;;;;;13.58;97.00;98586.38;5095079;28;20191;-51
2022/06/03 03:26:55;;;;;;;6.37;4.03;;;;;;;13.58;96.85;98596.06;5095136;28;20200;-53
2022/06/03 03:29:48;;;;;;;4.77;3.93;;;;;;;13.63;96.71;98593.75;5094694;28;20294;-51
2022/06/03 03:32:23;;;;;;;4.73;4.10;;;;;;;13.66;97.62;98590.78;5094113;28;20178;-51
2022/06/03 03:35:19;;;;;;;6.53;3.87;;;;;;;13.67;98.00;98588.97;5094593;28;20243;-52
2022/06/03 03:38:44;;;;;;;4.60;3.83;;;;;;;13.61;97.20;98587.00;5094612;28;20586;-51
2022/06/03 03:41:45;;;;;;;4.27;3.87;;;;;;;13.57;97.60;98591.81;5088701;28;20235;-52
2022/06/03 03:44:56;;;;;;;5.73;4.50;;;;;;;13.54;97.70;98585.06;5073038;28;20217;-53
2022/06/03 03:48:03;;;;;;;6.60;4.63;;;;;;;13.51;96.96;98582.00;5094674;28;20289;-52
2022/06/03 03:50:57;;;;;;;5.30;3.70;;;;;;;13.48;97.17;98587.56;5094650;28;20196;-51
2022/06/03 03:54:13;;;;;;;5.43;4.50;;;;;;;13.48;96.96;98591.00;5094496;28;20268;-51
2022/06/03 03:57:12;;;;;;;6.37;4.43;;;;;;;13.42;96.61;98594.31;5094486;28;20232;-51
2022/06/03 04:00:27;;;;;;;4.70;4.20;;;;;;;13.38;97.16;98590.34;5094247;28;20305;-53
2022/06/03 04:03:36;;;;;;;5.07;4.50;;;;;;;13.34;97.21;98592.50;5015294;28;20247;-51
2022/06/03 04:06:41;;;;;;;6.70;4.60;;;;;;;13.34;97.01;98589.06;5031661;28;20277;-51
2022/06/03 04:09:40;;;;;;;7.67;4.63;;;;;;;13.30;97.19;98588.59;5093739;28;20229;-51
2022/06/03 04:12:34;;;;;;;7.30;4.60;;;;;;;13.28;97.16;98586.13;5094982;28;20175;-53
2022/06/03 04:15:55;;;;;;;5.17;4.67;;;;;;;13.32;98.27;98581.38;5096041;28;20186;-51
2022/06/03 04:18:59;;;;;;;5.10;4.23;;;;;;;13.35;98.69;98570.56;5078559;28;20363;-51
2022/06/03 04:21:51;;;;;;;5.13;4.30;;;;;;;13.36;98.01;98572.19;5094597;28;20243;-52
2022/06/03 04:24:55;;;;;;;5.63;4.37;;;;;;;13.41;97.22;98574.28;5094549;28;20186;-51
2022/06/03 04:27:44;;;;;;;6.07;5.00;;;;;;;13.47;96.42;98568.38;5093818;28;20217;-53
2022/06/03 04:30:44;;;;;;;6.73;4.43;;;;;;;13.53;97.49;98565.09;5085530;28;20198;-51
2022/06/03 04:33:57;;;;;;;5.17;4.40;;;;;;;13.60;97.57;98561.78;5093923;28;20208;-51
2022/06/03 04:36:57;;;;;;;5.17;4.23;;;;;;;13.68;98.39;98570.44;5076481;28;20679;-51
2022/06/03 04:39:57;;;;;;;5.50;4.20;;;;;;;13.82;98.56;98575.91;5093812;28;20220;-52
2022/06/03 04:43:09;;;;;;;4.93;4.00;;;;;;;13.94;99.16;98569.28;5094951;28;20705;-51
2022/06/03 04:46:09;;;;;;;4.70;4.13;;;;;;;14.13;98.39;98577.69;5097083;28;20288;-52
2022/06/03 04:49:12;;;;;;;4.20;3.80;;;;;;;14.19;97.59;98589.31;5097646;28;20198;-52
2022/06/03 04:52:18;;;;;;;5.57;4.70;;;;;;;14.21;96.43;98593.38;5098013;28;20185;-51
2022/06/03 04:55:40;;;;;;;7.77;4.30;;;;;;;14.27;95.05;98602.38;5098689;28;20279;-52
2022/06/03 04:58:49;;;;;;;5.93;4.90;;;;;;;14.30;94.49;98600.22;5097497;28;20206;-51
2022/06/03 05:02:04;;;;;;;6.40;5.23;;;;;;;14.38;92.72;98611.66;5097927;28;20212;-51
2022/06/03 05:05:29;;;;;;;5.50;4.90;;;;;;;14.40;91.62;98607.03;5053565;28;20248;-51
2022/06/03 05:08:29;;;;;;;5.70;5.10;;;;;;;14.44;90.61;98606.50;5097923;28;20226;-51
2022/06/03 05:11:39;;;;;;;7.70;5.80;;;;;;;14.45;89.18;98604.69;5098047;28;20186;-51
2022/06/03 05:14:43;;;;;;;7.20;6.30;;;;;;;14.53;86.12;98607.25;5097147;28;20193;-51
2022/06/03 05:17:39;;;;;;;7.80;5.57;;;;;;;14.44;85.92;98618.81;5096001;28;20255;-51
2022/06/03 05:20:25;;;;;;;7.40;5.83;;;;;;;14.39;85.66;98624.59;5095416;28;20672;-51
2022/06/03 05:23:15;;;;;;;7.03;6.33;;;;;;;14.27;85.69;98623.38;5096791;28;20693;-52
2022/06/03 05:26:31;;;;;;;9.23;6.30;;;;;;;14.29;84.32;98631.91;5083569;28;20197;-52
2022/06/03 05:29:24;;;;;;;10.73;6.33;;;;;;;14.08;83.12;98640.38;5014323;28;20220;-51
2022/06/03 05:32:25;;;;;;;7.50;6.23;;;;;;;14.10;84.05;98638.41;5096020;28;20277;-51
2022/06/03 05:35:33;;;;;;;7.70;5.20;;;;;;;14.23;83.51;98629.97;5097109;28;20569;-51
2022/06/03 05:38:16;;;;;;;6.50;5.53;;;;;;;14.29;83.29;98624.84;5096754;28;20209;-54
2022/06/03 05:41:04;;;;;;;8.33;5.50;;;;;;;14.39;83.20;98634.28;5096404;28;20193;-52
2022/06/03 05:43:57;;;;;;;6.00;5.17;;;;;;;14.66;83.18;98629.50;5096509;28;20189;-51
2022/06/03 05:46:40;;;;;;;8.90;5.40;;;;;;;14.91;82.25;98627.47;5096557;28;20182;-51
2022/06/03 05:49:27;;;;;;;7.57;5.27;;;;;;;15.17;80.46;98636.75;5096149;28;20543;-51
2022/06/03 05:52:11;;;;;;;7.70;5.43;;;;;;;15.54;79.80;98648.19;5096585;28;20200;-51
2022/06/03 05:54:50;;;;;;;6.60;6.00;;;;;;;15.75;75.89;98646.63;5096313;28;20260;-52
2022/06/03 05:57:29;;;;;;;6.20;5.03;;;;;;;15.90;75.21;98651.91;5096685;28;20182;-54
2022/06/03 06:00:43;;;;;;;6.70;4.93;;;;;;;15.86;75.46;98640.88;5096972;28;20217;-51
2022/06/03 06:03:26;;;;;;;7.27;5.03;;;;;;;16.02;76.25;98634.59;5094497;28;20189;-52
2022/06/03 06:06:31;;;;;;;5.97;5.07;;;;;;;16.20;75.11;98633.38;5096337;28;20554;-52
2022/06/03 06:09:18;;;;;;;6.70;5.60;;;;;;;16.37;73.79;98628.69;5095126;28;20700;-51
2022/06/03 06:12:05;;;;;;;7.20;5.20;;;;;;;16.50;74.18;98634.06;5094315;28;20210;-52
2022/06/03 06:14:44;;;;;;;9.97;5.53;;;;;;;16.70;72.62;98633.41;5094369;28;20202;-52
2022/06/03 06:17:33;;;;;;;6.13;4.97;;;;;;;17.09;72.14;98631.28;5095681;28;20194;-52
2022/06/03 06:20:12;;;;;;;7.43;4.77;;;;;;;17.47;70.31;98630.09;5095373;28;20194;-52
2022/06/03 06:22:46;;;;;;;7.83;4.37;;;;;;;17.89;70.62;98630.06;5095347;28;20216;-51
2022/06/03 06:25:24;;;;;;;6.03;3.87;;;;;;;18.40;67.99;98618.22;5093972;28;20286;-53
2022/06/03 06:28:01;;;;;;;4.83;4.37;;;;;;;18.69;67.74;98629.38;5094447;28;20273;-51
2022/06/03 06:30:55;;;;;;;4.80;4.17;;;;;;;19.16;65.13;98637.31;5094714;28;20197;-52
2022/06/03 06:34:12;;;;;;;5.23;4.40;;;;;;;19.83;62.76;98641.56;5094529;28;20705;-52
2022/06/03 06:37:02;;;;;;;5.70;4.40;;;;;;;20.02;59.18;98648.66;5094082;28;20641;-52
2022/06/03 06:39:51;;;;;;;6.20;4.30;;;;;;;19.57;60.35;98651.28;5094106;28;20188;-51
2022/06/03 06:42:29;;;;;;;6.20;4.70;;;;;;;19.46;60.95;98647.41;5094628;28;20563;-52
2022/06/03 06:45:16;;;;;;;6.10;5.00;;;;;;;19.56;60.62;98645.16;5094120;28;20189;-52
2022/06/03 06:47:51;;;;;;;5.37;4.87;;;;;;;19.56;60.73;98631.91;5094150;28;20212;-52
2022/06/03 06:50:23;;;;;;;8.23;4.70;;;;;;;19.60;61.09;98635.78;5094014;28;20641;-52
2022/06/03 06:52:58;;;;;;;7.57;4.20;;;;;;;19.94;59.59;98632.19;5094081;28;20189;-53
2022/06/03 06:55:36;;;;;;;7.63;5.07;;;;;;;19.84;59.81;98629.97;5093899;28;20234;-53
2022/06/03 06:58:06;;;;;;;8.37;5.00;;;;;;;19.73;60.45;98631.44;5093565;28;20216;-51
2022/06/03 07:00:38;;;;;;;5.47;4.70;;;;;;;19.82;60.27;98627.53;5094187;28;20187;-52
2022/06/03 07:03:12;;;;;;;6.43;4.63;;;;;;;19.95;60.13;98625.88;5093630;28;20301;-53
2022/06/03 07:05:47;;;;;;;7.23;4.87;;;;;;;20.30;59.02;98628.09;5092828;28;20191;-51
2022/06/03 07:08:20;;;;;;;6.43;5.23;;;;;;;20.16;58.96;98620.22;5093461;28;20208;-52
2022/06/03 07:10:54;;;;;;;5.27;4.77;;;;;;;20.20;59.00;98613.47;5093656;28;20619;-52
2022/06/03 07:13:31;;;;;;;8.70;4.80;;;;;;;20.18;58.82;98612.88;5093461;28;20207;-52
2022/06/03 07:16:09;;;;;;;6.60;5.03;;;;;;;20.08;59.58;98614.38;5093491;28;20190;-52
2022/06/03 07:21:42;;;;;;;6.83;5.10;;;;;;;20.10;59.33;98605.22;5092268;28;20324;-52
2022/06/03 07:24:15;;;;;;;7.13;5.20;;;;;;;20.02;59.39;98592.22;5093475;28;20192;-52
2022/06/03 07:26:48;;;;;;;5.90;5.37;;;;;;;19.87;59.26;98582.69;5093498;28;20195;-52
2022/06/03 07:29:20;;;;;;;5.57;4.50;;;;;;;20.25;59.11;98580.22;5093191;28;20223;-54
2022/06/03 07:31:58;;;;;;;6.43;4.70;;;;;;;20.18;58.11;98565.16;5093477;28;20579;-51
2022/06/03 07:34:31;;;;;;;7.07;5.03;;;;;;;20.37;58.19;98562.59;5092128;28;20201;-51
2022/06/03 07:37:05;;;;;;;6.83;4.27;;;;;;;20.76;59.07;98571.25;5093395;28;20206;-52
2022/06/03 07:39:43;;;;;;;8.13;5.20;;;;;;;20.96;56.37;98566.78;5093339;28;20190;-52
2022/06/03 07:42:21;;;;;;;7.30;5.33;;;;;;;21.27;54.92;98565.03;5091880;28;20253;-53
2022/06/03 07:45:27;;;;;;;6.23;4.67;;;;;;;21.64;54.38;98549.88;5093509;28;20728;-52
2022/06/03 07:47:59;;;;;;;6.60;4.80;;;;;;;21.61;54.44;98542.31;5092556;28;20690;-52
2022/06/03 07:50:29;;;;;;;7.80;4.40;;;;;;;21.39;55.64;98539.34;5093267;28;20195;-51
2022/06/03 07:53:01;;;;;;;11.77;4.43;;;;;;;21.48;57.30;98550.47;5093138;28;20591;-51
2022/06/03 07:55:31;;;;;;;5.50;4.50;;;;;;;21.40;56.03;98559.56;5092066;28;20204;-55
2022/06/03 07:58:04;;;;;;;5.60;4.57;;;;;;;21.05;56.35;98568.13;5092847;28;20569;-52
2022/06/03 08:00:36;;;;;;;6.57;4.10;;;;;;;20.84;57.16;98558.75;5093849;28;20271;-53
2022/06/03 08:03:08;;;;;;;7.13;3.97;;;;;;;21.03;57.33;98549.78;5092478;28;20224;-54
2022/06/03 08:05:35;;;;;;;11.17;4.70;;;;;;;20.83;57.78;98551.81;5094028;28;20240;-52
2022/06/03 08:10:58;;;;;;;7.80;5.00;;;;;;;20.83;59.17;98567.75;5092375;28;20196;-54
2022/06/03 08:13:27;;;;;;;6.77;5.00;;;;;;;20.34;59.72;98563.84;5092747;28;20276;-51
2022/06/03 08:15:58;;;;;;;6.20;5.53;;;;;;;20.54;58.26;98568.19;5092265;28;20193;-52
2022/06/03 08:18:32;;;;;;;5.57;5.07;;;;;;;20.69;58.20;98559.88;5092186;28;20564;-54
2022/06/03 08:21:04;;;;;;;9.73;5.20;;;;;;;20.88;57.72;98560.72;5090774;28;20201;-54
2022/06/03 08:23:33;;;;;;;8.17;5.20;;;;;;;21.07;56.89;98566.06;5092488;28;20215;-52
2022/06/03 08:26:05;;;;;;;5.90;4.70;;;;;;;21.05;57.47;98560.97;5092254;28;20189;-52
2022/06/03 08:28:36;;;;;;;7.10;5.20;;;;;;;21.04;56.02;98564.66;5092185;28;20800;-54
2022/06/03 08:31:07;;;;;;;8.90;5.73;;;;;;;20.97;55.79;98550.66;5092262;28;20193;-52
2022/06/03 08:33:45;;;;;;;5.10;4.57;;;;;;;21.31;55.79;98544.97;5091284;28;20192;-52
2022/06/03 08:36:16;;;;;;;8.77;5.23;;;;;;;21.58;56.66;98537.47;5092752;28;20189;-52
2022/06/03 08:39:08;;;;;;;12.33;5.40;;;;;;;21.37;54.94;98528.94;5092461;28;20724;-52
2022/06/03 08:41:49;;;;;;;8.33;5.23;;;;;;;21.36;55.15;98511.38;5092697;28;20197;-52
2022/06/03 08:44:38;;;;;;;6.17;4.77;;;;;;;21.58;55.33;98505.59;5092551;28;20207;-52
2022/06/03 08:47:12;;;;;;;6.80;4.47;;;;;;;21.95;54.73;98510.00;5092446;28;20189;-52
2022/06/03 08:49:56;;;;;;;5.03;4.47;;;;;;;22.16;54.43;98519.28;5092245;28;20188;-52
2022/06/03 08:52:52;;;;;;;5.67;4.67;;;;;;;22.09;56.47;98524.69;5093244;28;20175;-52
2022/06/03 08:55:50;;;;;;;5.90;4.33;;;;;;;22.19;53.93;98531.31;5091139;28;20192;-51
2022/06/03 08:58:29;;;;;;;11.17;4.80;;;;;;;21.96;54.42;98532.88;5047071;28;20581;-53
2022/06/03 09:01:16;;;;;;;8.70;4.30;;;;;;;21.83;54.34;98539.19;5092423;28;20198;-52
2022/06/03 09:03:50;;;;;;;6.80;3.77;;;;;;;21.81;54.48;98528.78;5092472;28;20220;-54
2022/06/03 09:06:45;;;;;;;6.73;3.53;;;;;;;21.85;55.13;98534.47;5092386;28;20187;-53
2022/06/03 09:09:20;;;;;;;7.40;3.80;;;;;;;22.11;54.55;98532.47;5091888;28;20206;-54
2022/06/03 09:11:52;;;;;;;7.87;3.57;;;;;;;22.20;54.61;98538.25;5092231;28;20182;-54
2022/06/03 09:14:23;;;;;;;9.50;3.60;;;;;;;22.33;53.12;98543.34;5092231;28;20204;-53
2022/06/03 09:16:53;;;;;;;8.43;3.57;;;;;;;22.02;54.11;98541.78;5092123;28;20205;-53
2022/06/03 09:19:27;;;;;;;6.00;3.47;;;;;;;21.99;53.90;98534.28;5091910;28;20206;-52
2022/06/03 09:22:01;;;;;;;4.40;3.60;;;;;;;22.19;53.03;98533.97;5092024;28;20635;-52
2022/06/03 09:24:33;;;;;;;8.87;3.60;;;;;;;22.50;52.60;98529.41;5092245;28;20641;-54
2022/06/03 09:27:03;;;;;;;6.83;3.43;;;;;;;22.92;51.20;98533.75;5091826;28;20191;-52
2022/06/03 09:29:31;;;;;;;6.77;3.90;;;;;;;22.77;50.66;98542.22;5092358;28;20711;-52
2022/06/03 09:32:03;;;;;;;5.83;3.50;;;;;;;23.01;50.51;98548.31;5095221;28;20272;-52
2022/06/03 09:34:40;;;;;;;6.67;3.40;;;;;;;23.18;49.84;98550.25;5095376;28;20185;-52
2022/06/03 09:37:10;;;;;;;8.43;3.33;;;;;;;23.58;49.34;98566.25;5095196;28;20267;-52
2022/06/03 09:39:38;;;;;;;5.40;3.47;;;;;;;23.65;48.89;98566.09;5095620;28;20227;-52
2022/06/03 09:42:06;;;;;;;8.87;3.20;;;;;;;23.85;48.92;98568.31;5095672;28;20192;-52
2022/06/03 09:44:33;;;;;;;4.60;3.00;;;;;;;24.38;47.83;98562.84;5095992;28;20191;-54
2022/06/03 09:47:03;;;;;;;5.67;3.40;;;;;;;24.50;47.51;98565.41;5095780;28;20238;-54
2022/06/03 09:49:32;;;;;;;6.43;3.60;;;;;;;24.60;47.64;98565.56;5095502;28;20205;-54
2022/06/03 09:52:02;;;;;;;7.73;3.90;;;;;;;24.57;46.70;98576.72;5096047;28;20452;-55
2022/06/03 09:54:34;;;;;;;8.20;3.37;;;;;;;25.03;45.18;98592.59;5096247;28;20189;-52
2022/06/03 09:57:08;;;;;;;4.37;3.33;;;;;;;25.06;44.64;98599.34;5094388;28;20673;-53
2022/06/03 09:59:37;;;;;;;4.70;3.07;;;;;;;24.66;46.08;98597.66;5095370;28;20226;-52
2022/06/03 10:02:07;;;;;;;3.93;3.17;;;;;;;24.61;47.14;98599.19;5095757;28;20192;-52
2022/06/03 10:04:34;;;;;;;14.50;3.80;;;;;;;24.44;46.20;98604.56;5095747;28;20266;-54
2022/06/03 10:07:20;;;;;;;5.70;3.50;;;;;;;24.41;46.31;98609.53;5095936;28;20204;-52
2022/06/03 10:12:52;;;;;;;8.13;3.80;;;;;;;23.61;47.92;98620.13;5095662;28;20185;-52
2022/06/03 10:15:42;;;;;;;5.53;4.13;;;;;;;23.67;49.36;98630.63;5095019;28;20267;-55
2022/06/03 10:18:22;;;;;;;7.00;4.20;;;;;;;23.22;50.77;98650.72;5095080;28;20310;-53
2022/06/03 10:20:50;;;;;;;12.17;4.10;;;;;;;23.29;51.76;98671.97;5095052;28;20193;-54
2022/06/03 10:23:20;;;;;;;13.37;3.83;;;;;;;23.19;51.73;98685.00;5094956;28;20202;-52
2022/06/03 10:25:51;;;;;;;7.90;3.80;;;;;;;23.06;51.18;98702.84;5094820;28;20196;-52
2022/06/03 10:28:19;;;;;;;5.53;4.13;;;;;;;23.15;51.53;98711.28;5094462;28;20235;-53
2022/06/03 10:30:59;;;;;;;6.20;3.70;;;;;;;22.99;50.50;98710.91;5095590;28;20192;-55
2022/06/03 10:33:27;;;;;;;5.67;4.07;;;;;;;22.89;50.44;98707.22;5095397;28;20268;-52
2022/06/03 10:35:57;;;;;;;5.53;3.90;;;;;;;22.79;52.14;98703.25;5094908;28;20197;-54
2022/06/03 10:38:28;;;;;;;8.20;4.43;;;;;;;22.67;53.02;98691.78;5094784;28;20207;-52
2022/06/03 10:40:57;;;;;;;9.10;4.07;;;;;;;22.92;53.72;98666.84;5094510;28;20209;-53
2022/06/03 10:43:30;;;;;;;10.17;4.97;;;;;;;22.77;53.42;98652.13;5095012;28;20216;-54
2022/06/03 10:46:08;;;;;;;8.37;4.83;;;;;;;22.49;54.06;98623.53;5095372;28;20207;-54
2022/06/03 10:48:38;;;;;;;8.17;4.00;;;;;;;22.63;54.32;98602.81;5094744;28;20279;-54
2022/06/03 11:01:06;;;;;;;5.03;3.43;;;;;;;22.67;54.43;98591.50;5094742;28;20205;-52
2022/06/03 11:02:31;;;;;;;9.63;4.60;;;;;;;22.41;58.23;98499.63;5094230;28;20561;-52
2022/06/03 11:05:14;;;;;;;6.50;4.27;;;;;;;22.53;60.45;98473.88;5093799;28;20193;-53
2022/06/03 11:07:42;;;;;;;4.40;3.77;;;;;;;22.51;60.22;98456.53;5093693;28;20220;-54
2022/06/03 11:10:13;;;;;;;5.73;3.50;;;;;;;22.95;58.66;98459.56;5094473;28;20193;-54
2022/06/03 11:12:44;;;;;;;5.17;3.60;;;;;;;23.56;60.21;98476.94;5094094;28;20215;-52
2022/06/03 11:15:35;;;;;;;6.50;4.20;;;;;;;24.05;55.79;98487.09;5094085;28;20641;-52
2022/06/03 11:18:15;;;;;;;7.23;4.00;;;;;;;24.58;52.64;98487.63;5087182;28;20213;-53
2022/06/03 11:20:43;;;;;;;4.00;3.53;;;;;;;24.73;52.80;98484.38;5094070;28;20268;-52
2022/06/03 11:23:12;;;;;;;6.67;3.37;;;;;;;25.05;52.25;98496.25;5093983;28;20215;-55
2022/06/03 11:25:42;;;;;;;4.00;3.40;;;;;;;24.75;52.23;98484.94;5094521;28;20191;-52
2022/06/03 11:28:17;;;;;;;6.00;3.20;;;;;;;25.48;50.80;98483.09;5093321;28;20583;-54
2022/06/03 11:30:50;;;;;;;4.87;3.20;;;;;;;25.23;50.86;98486.28;5093378;28;20704;-54
2022/06/03 11:33:29;;;;;;;4.73;3.63;;;;;;;25.47;50.90;98492.97;5093400;28;20196;-53
2022/06/03 11:36:01;;;;;;;5.50;3.77;;;;;;;26.09;49.35;98493.50;5093936;28;20190;-53
2022/06/03 11:38:41;;;;;;;7.60;3.67;;;;;;;26.34;47.94;98499.31;5093220;28;20211;-52
2022/06/03 11:41:14;;;;;;;7.80;3.60;;;;;;;26.59;50.23;98495.19;5092386;28;20204;-54
2022/06/03 11:43:45;;;;;;;3.83;3.37;;;;;;;26.98;50.70;98497.56;5093451;28;20254;-54
2022/06/03 11:46:17;;;;;;;6.30;3.60;;;;;;;27.20;48.51;98508.06;5093733;28;20189;-54
2022/06/03 11:48:48;;;;;;;4.00;3.27;;;;;;;27.75;47.01;98507.66;5091395;28;20224;-52
2022/06/03 11:51:15;;;;;;;3.57;3.23;;;;;;;28.12;46.25;98506.63;5092693;28;20541;-52
2022/06/03 11:53:47;;;;;;;3.42;3.10;;;;;;;28.45;44.93;98510.88;5092599;28;20187;-53
2022/06/03 11:56:18;;;;;;;6.77;3.57;;;;;;;27.94;44.89;98505.25;5092827;28;20570;-54
2022/06/03 11:58:58;;;;;;;7.30;3.50;;;;;;;27.37;46.50;98515.88;5092559;28;20211;-52
2022/06/03 12:01:35;;;;;;;5.30;3.50;;;;;;;26.80;47.22;98525.53;5093049;28;20181;-52
2022/06/03 12:04:21;;;;;;;5.00;3.93;;;;;;;25.87;49.64;98528.38;5092959;28;20213;-52
2022/06/03 12:07:00;;;;;;;5.17;4.00;;;;;;;25.56;50.94;98528.06;5092872;28;20551;-54
2022/06/03 12:09:40;;;;;;;7.97;4.10;;;;;;;25.61;50.58;98546.03;5092371;28;20217;-52
2022/06/03 12:15:28;;;;;;;7.07;4.03;;;;;;;25.96;49.66;98563.47;5092991;28;20195;-52
2022/06/03 12:17:56;;;;;;;5.97;3.70;;;;;;;26.31;47.76;98574.75;5091314;28;20219;-52
2022/06/03 12:20:37;;;;;;;7.70;3.60;;;;;;;25.86;48.39;98574.91;5092651;28;20186;-52
2022/06/03 12:23:49;;;;;;;6.93;3.90;;;;;;;25.37;49.96;98581.03;5091905;28;20210;-52
2022/06/03 12:26:22;;;;;;;5.23;4.50;;;;;;;25.20;50.26;98584.56;5092544;28;20196;-54
2022/06/03 12:28:51;;;;;;;4.40;4.00;;;;;;;24.93;51.16;98578.31;5092660;28;20249;-53
2022/06/03 12:31:35;;;;;;;7.73;4.40;;;;;;;24.84;51.93;98586.75;5092727;28;20240;-55
2022/06/03 12:34:13;;;;;;;5.57;4.30;;;;;;;25.00;50.40;98598.44;5092837;28;20183;-52
2022/06/03 12:36:51;;;;;;;5.57;4.30;;;;;;;24.27;52.69;98601.88;5092487;28;20217;-52
2022/06/03 12:39:57;;;;;;;6.43;4.30;;;;;;;24.38;53.82;98604.72;5092088;28;20208;-52
2022/06/03 12:42:39;;;;;;;4.00;3.60;;;;;;;24.39;52.99;98619.66;5092711;28;20187;-53
2022/06/03 12:45:27;;;;;;;5.43;4.60;;;;;;;24.03;55.45;98623.34;5092538;28;20556;-52
2022/06/03 12:47:56;;;;;;;4.93;4.40;;;;;;;23.91;56.16;98617.22;5092341;28;20223;-54
2022/06/03 12:50:35;;;;;;;4.57;3.90;;;;;;;23.96;56.58;98619.16;5092781;28;20666;-55
2022/06/03 12:53:28;;;;;;;5.90;4.20;;;;;;;24.02;57.64;98621.72;5092454;28;20562;-52
2022/06/03 12:55:59;;;;;;;7.27;4.20;;;;;;;23.79;61.60;98614.63;5092435;28;20212;-52
2022/06/03 12:58:48;;;;;;;5.37;3.87;;;;;;;23.55;63.29;98614.69;5092382;28;20207;-53
2022/06/03 13:01:33;;;;;;;7.97;4.13;;;;;;;23.77;62.19;98614.03;5091005;28;20599;-52
2022/06/03 13:04:40;;;;;;;4.83;3.70;;;;;;;23.49;64.41;98599.66;5093280;28;20238;-52
2022/06/03 13:07:34;;;;;;;5.10;3.93;;;;;;;23.67;62.46;98601.31;5096081;28;20269;-52
2022/06/03 13:10:24;;;;;;;7.67;4.50;;;;;;;23.74;60.81;98601.97;5060999;28;20264;-51
2022/06/03 13:12:53;;;;;;;4.53;4.13;;;;;;;23.97;61.06;98599.44;5096425;28;20187;-51
2022/06/03 13:15:48;;;;;;;5.83;4.00;;;;;;;24.31;59.46;98600.34;5096091;28;20180;-52
2022/06/03 13:18:44;;;;;;;6.23;4.80;;;;;;;24.24;56.48;98594.38;5095613;28;20211;-53
2022/06/03 13:21:49;;;;;;;11.23;4.40;;;;;;;24.34;56.57;98591.03;5050087;28;20278;-52